createdAt,value
2023-02-24T00:01:52.715Z,29.48
2023-02-24T00:04:21.140Z,23.40
2023-02-24T00:06:48.819Z,24.70
2023-02-24T00:09:19.813Z,25.05
2023-02-24T00:11:55.945Z,21.75
2023-02-24T00:14:25.030Z,19.30
2023-02-24T00:16:53.440Z,20.08
2023-02-24T00:19:23.966Z,16.20
2023-02-24T00:21:52.078Z,15.98
2023-02-24T00:24:19.428Z,15.90
2023-02-24T00:26:46.492Z,15.85
2023-02-24T00:29:16.337Z,18.33
2023-02-24T00:34:12.895Z,15.70
2023-02-24T00:36:40.209Z,15.57
2023-02-24T00:39:09.946Z,15.93
2023-02-24T00:41:43.183Z,15.40
2023-02-24T00:44:14.983Z,18.42
2023-02-24T00:46:47.338Z,16.60
2023-02-24T00:49:27.443Z,16.90
2023-02-24T00:51:54.574Z,17.50
2023-02-24T00:54:25.604Z,16.80
2023-02-24T00:56:52.630Z,18.15
2023-02-24T00:59:24.344Z,14.85
2023-02-24T01:02:07.284Z,20.83
2023-02-24T01:04:34.944Z,20.08
2023-02-24T01:07:02.199Z,20.75
2023-02-24T01:09:31.720Z,18.98
2023-02-24T01:12:17.490Z,19.33
2023-02-24T01:14:47.939Z,18.20
2023-02-24T01:17:16.253Z,18.20
2023-02-24T01:19:44.489Z,16.85
2023-02-24T01:22:15.717Z,15.43
2023-02-24T01:24:44.406Z,18.30
2023-02-24T01:27:13.565Z,15.95
2023-02-24T01:29:41.664Z,16.87
2023-02-24T01:32:17.484Z,15.85
2023-02-24T01:34:44.967Z,20.23
2023-02-24T01:37:16.737Z,17.50
2023-02-24T01:39:45.327Z,15.43
2023-02-24T01:42:19.893Z,14.60
2023-02-24T01:44:47.004Z,16.95
2023-02-24T01:47:16.663Z,16.20
2023-02-24T01:49:48.206Z,16.98
2023-02-24T01:52:23.821Z,17.10
2023-02-24T01:54:55.361Z,16.95
2023-02-24T01:57:26.225Z,15.88
2023-02-24T02:00:02.300Z,16.50
2023-02-24T02:02:29.802Z,18.58
2023-02-24T02:05:06.023Z,15.95
2023-02-24T02:07:33.405Z,16.48
2023-02-24T02:10:04.525Z,18.10
2023-02-24T02:12:37.280Z,16.40
2023-02-24T02:15:06.554Z,17.60
2023-02-24T02:17:37.151Z,16.12
2023-02-24T02:20:16.353Z,23.27
2023-02-24T02:23:01.606Z,21.70
2023-02-24T02:26:00.871Z,20.52
2023-02-24T02:28:54.296Z,20.35
2023-02-24T02:31:29.246Z,19.08
2023-02-24T02:34:05.743Z,17.33
2023-02-24T02:37:00.848Z,19.30
2023-02-24T02:39:37.222Z,18.83
2023-02-24T02:42:19.582Z,17.35
2023-02-24T02:45:05.545Z,18.35
2023-02-24T02:47:41.515Z,17.17
2023-02-24T02:50:20.288Z,15.75
2023-02-24T02:52:54.278Z,18.17
2023-02-24T02:55:56.629Z,16.95
2023-02-24T02:58:35.425Z,16.92
2023-02-24T03:01:04.701Z,16.50
2023-02-24T03:03:54.284Z,16.33
2023-02-24T03:06:32.277Z,16.73
2023-02-24T03:09:16.537Z,16.20
2023-02-24T03:11:54.153Z,16.95
2023-02-24T03:14:26.897Z,16.42
2023-02-24T03:16:56.113Z,17.77
2023-02-24T03:19:37.918Z,16.95
2023-02-24T03:22:14.297Z,17.05
2023-02-24T03:24:44.762Z,17.65
2023-02-24T03:27:28.677Z,17.52
2023-02-24T03:30:13.201Z,17.55
2023-02-24T03:33:02.864Z,17.50
2023-02-24T03:35:34.502Z,18.20
2023-02-24T03:38:01.809Z,16.08
2023-02-24T03:40:30.287Z,18.73
2023-02-24T03:43:09.288Z,19.08
2023-02-24T03:45:38.916Z,18.13
2023-02-24T03:48:08.424Z,17.50
2023-02-24T03:50:38.334Z,18.52
2023-02-24T03:53:23.682Z,17.83
2023-02-24T03:56:03.764Z,17.27
2023-02-24T03:58:58.196Z,17.50
2023-02-24T04:01:58.157Z,17.77
2023-02-24T04:04:47.007Z,18.00
2023-02-24T04:07:23.995Z,19.52
2023-02-24T04:10:02.938Z,18.00
2023-02-24T04:12:32.389Z,16.10
2023-02-24T04:15:09.391Z,17.37
2023-02-24T04:18:03.560Z,16.42
2023-02-24T04:20:34.430Z,15.85
2023-02-24T04:23:10.847Z,16.50
2023-02-24T04:25:40.648Z,16.58
2023-02-24T04:30:42.760Z,20.15
2023-02-24T04:33:10.331Z,22.27
2023-02-24T04:35:38.118Z,21.92
2023-02-24T04:38:05.597Z,21.17
2023-02-24T04:40:32.669Z,22.98
2023-02-24T04:42:59.629Z,21.12
2023-02-24T04:45:29.496Z,22.83
2023-02-24T04:50:34.826Z,24.60
2023-02-24T04:53:10.333Z,22.98
2023-02-24T04:55:40.818Z,23.85
2023-02-24T04:58:11.956Z,24.95
2023-02-24T05:00:41.778Z,24.02
2023-02-24T05:05:38.572Z,22.48
2023-02-24T05:08:11.195Z,22.75
2023-02-24T05:10:49.723Z,23.38
2023-02-24T05:13:19.999Z,23.83
2023-02-24T05:15:48.306Z,22.83
2023-02-24T05:18:26.143Z,21.70
2023-02-24T05:21:13.968Z,20.48
2023-02-24T05:23:46.150Z,22.23
2023-02-24T05:26:19.168Z,21.60
2023-02-24T05:28:52.412Z,22.13
2023-02-24T05:31:26.968Z,21.08
2023-02-24T05:34:04.531Z,21.98
2023-02-24T05:36:40.438Z,23.38
2023-02-24T05:39:09.743Z,23.20
2023-02-24T05:41:41.878Z,21.98
2023-02-24T05:44:12.857Z,22.20
2023-02-24T05:46:44.827Z,23.10
2023-02-24T05:49:28.831Z,22.77
2023-02-24T05:52:00.409Z,22.35
2023-02-24T05:54:31.380Z,22.67
2023-02-24T05:57:12.213Z,23.83
2023-02-24T05:59:43.644Z,22.33
2023-02-24T06:02:16.106Z,24.10
2023-02-24T06:04:51.489Z,22.50
2023-02-24T06:07:28.135Z,21.85
2023-02-24T06:09:58.022Z,21.73
2023-02-24T06:14:54.910Z,20.92
2023-02-24T06:17:23.108Z,23.58
2023-02-24T06:19:52.499Z,24.02
2023-02-24T06:22:23.179Z,25.25
2023-02-24T06:24:50.708Z,24.58
2023-02-24T06:27:21.914Z,24.98
2023-02-24T06:29:51.154Z,25.17
2023-02-24T06:32:24.142Z,25.70
2023-02-24T06:34:52.101Z,25.35
2023-02-24T06:37:23.421Z,24.77
2023-02-24T06:39:50.907Z,26.10
2023-02-24T06:42:35.876Z,26.17
2023-02-24T06:45:25.903Z,24.85
2023-02-24T06:52:26.154Z,25.27
2023-02-24T06:54:57.990Z,27.08
2023-02-24T06:57:25.614Z,25.88
2023-02-24T06:59:53.132Z,27.17
2023-02-24T07:02:20.478Z,27.23
2023-02-24T07:04:47.913Z,25.90
2023-02-24T07:07:19.151Z,26.80
2023-02-24T07:09:46.338Z,24.50
2023-02-24T07:12:13.524Z,24.70
2023-02-24T07:14:41.082Z,24.70
2023-02-24T07:17:08.939Z,25.05
2023-02-24T07:19:39.481Z,24.02
2023-02-24T07:22:12.831Z,25.20
2023-02-24T07:24:52.441Z,26.35
2023-02-24T07:27:29.336Z,24.25
2023-02-24T07:29:59.644Z,23.00
2023-02-24T07:32:26.846Z,23.83
2023-02-24T07:34:53.970Z,24.40
2023-02-24T07:37:21.491Z,24.40
2023-02-24T07:39:50.007Z,24.30
2023-02-24T07:42:22.889Z,21.85
2023-02-24T07:44:50.351Z,25.15
2023-02-24T07:47:17.587Z,24.98
2023-02-24T07:49:45.804Z,24.20
2023-02-24T07:52:20.701Z,25.90
2023-02-24T07:54:56.056Z,25.12
2023-02-24T07:57:25.500Z,23.60
2023-02-24T07:59:55.760Z,32.67
2023-02-24T08:02:27.374Z,31.52
2023-02-24T08:04:58.481Z,26.55
2023-02-24T08:07:35.465Z,29.23
2023-02-24T08:10:24.545Z,27.25
2023-02-24T08:13:00.573Z,27.98
2023-02-24T08:15:34.808Z,27.65
2023-02-24T08:18:12.766Z,28.42
2023-02-24T08:21:04.438Z,27.55
2023-02-24T08:24:11.083Z,25.12
2023-02-24T08:27:20.662Z,24.52
2023-02-24T08:30:03.302Z,23.87
2023-02-24T08:32:46.190Z,25.83
2023-02-24T08:35:27.509Z,27.85
2023-02-24T08:37:58.163Z,26.75
2023-02-24T08:40:49.517Z,25.00
2023-02-24T08:43:37.861Z,27.02
2023-02-24T08:46:14.031Z,24.75
2023-02-24T08:48:46.857Z,23.38
2023-02-24T08:51:25.418Z,26.60
2023-02-24T08:54:15.759Z,23.15
2023-02-24T08:57:01.410Z,26.77
2023-02-24T09:01:15.445Z,23.27
2023-02-24T09:07:43.601Z,24.42
2023-02-24T09:13:38.791Z,23.38
2023-02-24T09:16:06.730Z,23.60
2023-02-24T09:18:38.644Z,23.70
2023-02-24T09:21:44.007Z,22.13
2023-02-24T09:24:21.596Z,22.80
2023-02-24T09:26:51.734Z,20.58
2023-02-24T09:29:36.512Z,20.27
2023-02-24T09:32:17.253Z,21.45
2023-02-24T09:34:51.214Z,21.55
2023-02-24T09:37:27.739Z,20.77
2023-02-24T09:39:58.071Z,21.65
2023-02-24T09:42:53.071Z,21.67
2023-02-24T09:45:46.391Z,21.92
2023-02-24T09:48:23.957Z,25.98
2023-02-24T09:51:08.445Z,30.37
2023-02-24T09:53:41.736Z,24.33
2023-02-24T09:56:41.408Z,23.60
2023-02-24T09:59:11.964Z,23.17
2023-02-24T10:01:51.120Z,22.55
2023-02-24T10:04:53.588Z,20.85
2023-02-24T10:07:38.664Z,23.02
2023-02-24T10:10:32.022Z,24.95
2023-02-24T10:13:37.911Z,23.42
2023-02-24T10:16:11.224Z,24.83
2023-02-24T10:18:48.719Z,22.50
2023-02-24T10:21:59.220Z,22.02
2023-02-24T10:24:50.206Z,24.30
2023-02-24T10:27:25.506Z,24.67
2023-02-24T10:30:28.256Z,22.52
2023-02-24T10:33:05.673Z,20.65
2023-02-24T10:35:56.289Z,21.23
2023-02-24T10:39:12.766Z,23.40
2023-02-24T10:42:27.246Z,20.80
2023-02-24T10:45:24.121Z,24.33
2023-02-24T10:47:59.951Z,20.25
2023-02-24T10:50:55.042Z,22.05
2023-02-24T10:53:40.117Z,21.73
2023-02-24T10:56:28.619Z,21.58
2023-02-24T10:59:25.297Z,22.77
2023-02-24T11:02:37.629Z,22.05
2023-02-24T11:05:37.802Z,22.90
2023-02-24T11:08:35.192Z,22.15
2023-02-24T11:11:26.221Z,23.25
2023-02-24T11:14:35.759Z,23.20
2023-02-24T11:19:55.522Z,23.12
2023-02-24T11:22:28.083Z,20.15
2023-02-24T11:24:55.036Z,20.17
2023-02-24T11:27:25.371Z,19.15
2023-02-24T11:30:15.422Z,20.20
2023-02-24T11:33:01.646Z,19.73
2023-02-24T11:35:43.730Z,20.33
2023-02-24T11:38:43.917Z,18.75
2023-02-24T11:41:16.794Z,20.45
2023-02-24T11:43:55.449Z,20.12
2023-02-24T11:46:40.152Z,21.60
2023-02-24T11:49:27.280Z,19.65
2023-02-24T11:51:58.311Z,19.73
2023-02-24T11:54:26.924Z,18.70
2023-02-24T11:57:01.639Z,19.23
2023-02-24T11:59:38.640Z,18.45
2023-02-24T12:02:14.690Z,19.02
2023-02-24T12:05:04.852Z,19.08
2023-02-24T12:07:53.152Z,18.52
2023-02-24T12:10:41.804Z,19.45
2023-02-24T12:13:12.206Z,16.23
2023-02-24T12:15:44.560Z,18.35
2023-02-24T12:18:34.276Z,19.85
2023-02-24T12:21:07.870Z,18.37
2023-02-24T12:23:42.347Z,19.27
2023-02-24T12:26:24.433Z,18.37
2023-02-24T12:29:16.462Z,18.55
2023-02-24T12:31:55.936Z,17.85
2023-02-24T12:34:35.208Z,18.15
2023-02-24T12:37:22.536Z,19.87
2023-02-24T12:40:01.911Z,20.40
2023-02-24T12:42:35.163Z,19.33
2023-02-24T12:45:34.970Z,19.23
2023-02-24T12:48:13.760Z,18.58
2023-02-24T12:50:59.231Z,19.40
2023-02-24T12:53:39.433Z,19.30
2023-02-24T12:56:31.718Z,20.20
2023-02-24T12:59:05.883Z,19.27
2023-02-24T13:01:42.322Z,18.08
2023-02-24T13:04:22.726Z,17.55
2023-02-24T13:07:15.143Z,19.67
2023-02-24T13:10:26.060Z,16.70
2023-02-24T13:13:22.838Z,17.12
2023-02-24T13:16:11.724Z,17.70
2023-02-24T13:19:08.273Z,17.12
2023-02-24T13:21:38.670Z,16.23
2023-02-24T13:24:27.718Z,15.25
2023-02-24T13:27:10.357Z,16.87
2023-02-24T13:29:57.155Z,15.68
2023-02-24T13:32:33.024Z,16.10
2023-02-24T13:35:05.663Z,15.98
2023-02-24T13:37:39.903Z,15.48
2023-02-24T13:40:19.411Z,14.68
2023-02-24T13:43:02.252Z,16.23
2023-02-24T13:45:35.309Z,15.07
2023-02-24T13:48:37.168Z,16.23
2023-02-24T13:51:30.980Z,14.38
2023-02-24T13:54:21.684Z,16.70
2023-02-24T13:57:33.059Z,14.10
2023-02-24T14:00:26.406Z,15.25
2023-02-24T14:02:54.811Z,14.65
2023-02-24T14:05:36.732Z,14.35
2023-02-24T14:08:09.462Z,14.70
2023-02-24T14:10:38.012Z,14.02
2023-02-24T14:13:15.703Z,12.55
2023-02-24T14:15:45.481Z,14.27
2023-02-24T14:18:46.657Z,13.65
2023-02-24T14:21:37.460Z,14.90
2023-02-24T14:24:16.254Z,14.07
2023-02-24T14:26:54.465Z,14.07
2023-02-24T14:29:43.667Z,13.57
2023-02-24T14:32:32.400Z,13.30
2023-02-24T14:35:01.862Z,12.32
2023-02-24T14:37:31.432Z,12.02
2023-02-24T14:40:04.310Z,12.05
2023-02-24T14:42:34.002Z,12.45
2023-02-24T14:45:28.586Z,11.30
2023-02-24T14:47:59.732Z,11.12
2023-02-24T14:50:56.765Z,10.85
2023-02-24T14:53:30.238Z,11.02
2023-02-24T14:58:57.593Z,11.45
2023-02-24T15:01:40.177Z,10.18
2023-02-24T15:04:39.677Z,10.65
2023-02-24T15:07:17.583Z,10.25
2023-02-24T15:09:54.940Z,9.90
2023-02-24T15:12:51.347Z,9.27
2023-02-24T15:15:22.558Z,10.15
2023-02-24T15:18:04.645Z,10.80
2023-02-24T15:20:37.838Z,10.43
2023-02-24T15:23:05.976Z,10.38
2023-02-24T15:25:47.880Z,11.98
2023-02-24T15:28:35.879Z,10.55
2023-02-24T15:31:16.276Z,11.10
2023-02-24T15:33:53.136Z,13.32
2023-02-24T15:36:25.941Z,11.50
2023-02-24T15:39:03.505Z,11.35
2023-02-24T15:41:41.658Z,11.63
2023-02-24T15:44:30.924Z,12.55
2023-02-24T15:46:59.536Z,12.68
2023-02-24T15:49:26.555Z,11.98
2023-02-24T15:51:55.671Z,13.00
2023-02-24T15:54:29.592Z,13.73
2023-02-24T15:57:00.748Z,13.18
2023-02-24T15:59:29.185Z,12.35
2023-02-24T16:01:56.247Z,11.85
2023-02-24T16:04:25.923Z,11.55
2023-02-24T16:09:46.531Z,10.85
2023-02-24T16:14:43.788Z,11.48
2023-02-24T16:17:34.257Z,11.90
2023-02-24T16:20:02.147Z,11.85
2023-02-24T16:22:29.668Z,10.63
2023-02-24T16:24:56.663Z,12.30
2023-02-24T16:27:26.218Z,10.57
2023-02-24T16:29:53.679Z,12.68
2023-02-24T16:32:25.956Z,10.70
2023-02-24T16:34:53.998Z,12.50
2023-02-24T16:37:28.036Z,9.93
2023-02-24T16:39:57.849Z,10.25
2023-02-24T16:42:24.776Z,10.57
2023-02-24T16:44:51.647Z,9.57
2023-02-24T16:47:25.452Z,10.93
2023-02-24T16:49:56.459Z,9.57
2023-02-24T16:52:25.136Z,11.30
2023-02-24T16:54:52.193Z,10.18
2023-02-24T16:57:21.161Z,9.40
2023-02-24T16:59:48.056Z,10.63
2023-02-24T17:02:24.033Z,9.70
2023-02-24T17:04:50.994Z,10.25
2023-02-24T17:07:20.672Z,10.50
2023-02-24T17:12:17.496Z,11.40
2023-02-24T17:14:44.499Z,11.05
2023-02-24T17:17:11.888Z,11.38
2023-02-24T17:19:39.471Z,11.32
2023-02-24T17:22:06.437Z,11.98
2023-02-24T17:24:33.463Z,12.43
2023-02-24T17:27:01.272Z,12.40
2023-02-24T17:29:28.389Z,13.38
2023-02-24T17:31:55.625Z,12.85
2023-02-24T17:34:24.464Z,11.10
2023-02-24T17:36:51.678Z,12.75
2023-02-24T17:39:18.787Z,11.75
2023-02-24T17:41:45.942Z,13.75
2023-02-24T17:44:12.984Z,12.02
2023-02-24T17:46:40.155Z,12.23
2023-02-24T17:49:07.313Z,11.30
2023-02-24T17:51:34.275Z,11.25
2023-02-24T17:54:03.249Z,10.70
2023-02-24T17:56:30.291Z,12.55
2023-02-24T17:59:01.174Z,11.30
2023-02-24T18:01:28.423Z,13.45
2023-02-24T18:03:57.824Z,11.73
2023-02-24T18:06:25.624Z,10.95
2023-02-24T18:08:52.615Z,12.50
2023-02-24T18:11:22.427Z,12.25
2023-02-24T18:13:52.838Z,12.07
2023-02-24T18:16:20.257Z,10.50
2023-02-24T18:18:47.581Z,11.30
2023-02-24T18:21:14.529Z,12.35
2023-02-24T18:23:41.685Z,12.77
2023-02-24T18:26:11.009Z,11.57
2023-02-24T18:28:38.012Z,12.20
2023-02-24T18:31:19.938Z,12.70
2023-02-24T18:33:47.164Z,12.48
2023-02-24T18:36:14.812Z,11.35
2023-02-24T18:38:42.151Z,10.85
2023-02-24T18:41:12.112Z,11.52
2023-02-24T18:46:08.466Z,13.57
2023-02-24T18:48:37.829Z,12.32
2023-02-24T18:51:04.990Z,11.65
2023-02-24T18:53:37.072Z,12.32
2023-02-24T18:56:06.940Z,12.48
2023-02-24T19:01:01.768Z,12.70
2023-02-24T19:03:28.772Z,12.60
2023-02-24T19:05:55.702Z,13.55
2023-02-24T19:08:22.619Z,12.15
2023-02-24T19:10:49.512Z,13.30
2023-02-24T19:13:16.488Z,12.18
2023-02-24T19:15:44.947Z,11.73
2023-02-24T19:18:12.014Z,12.00
2023-02-24T19:20:43.133Z,18.85
2023-02-24T19:23:10.669Z,13.15
2023-02-24T19:25:37.714Z,12.75
2023-02-24T19:28:04.879Z,11.73
2023-02-24T19:30:32.106Z,13.60
2023-02-24T19:32:59.209Z,13.57
2023-02-24T19:35:26.590Z,12.05
2023-02-24T19:37:53.638Z,11.63
2023-02-24T19:40:20.878Z,12.85
2023-02-24T19:42:49.596Z,11.45
2023-02-24T19:45:17.307Z,13.23
2023-02-24T19:47:47.112Z,12.57
2023-02-24T19:52:43.029Z,13.30
2023-02-24T19:55:12.572Z,11.50
2023-02-24T19:57:39.582Z,11.75
2023-02-24T20:00:07.587Z,12.63
2023-02-24T20:02:34.521Z,12.73
2023-02-24T20:05:01.507Z,13.43
2023-02-24T20:07:28.521Z,13.65
2023-02-24T20:09:55.555Z,11.75
2023-02-24T20:12:23.012Z,12.95
2023-02-24T20:14:51.500Z,12.18
2023-02-24T20:17:18.557Z,12.68
2023-02-24T20:19:45.530Z,12.68
2023-02-24T20:22:12.693Z,12.77
2023-02-24T20:24:39.580Z,11.82
2023-02-24T20:27:06.649Z,13.65
2023-02-24T20:29:35.304Z,12.70
2023-02-24T20:32:03.732Z,12.23
2023-02-24T20:34:30.775Z,12.35
2023-02-24T20:36:57.929Z,12.05
2023-02-24T20:39:25.077Z,10.93
2023-02-24T20:41:54.788Z,12.25
2023-02-24T20:44:21.701Z,11.63
2023-02-24T20:46:48.729Z,10.50
2023-02-24T20:49:15.734Z,11.25
2023-02-24T20:51:43.770Z,11.60
2023-02-24T20:54:12.690Z,10.85
2023-02-24T20:56:41.262Z,11.32
2023-02-24T20:59:17.494Z,11.40
2023-02-24T21:01:47.607Z,11.15
2023-02-24T21:04:16.474Z,11.85
2023-02-24T21:06:43.612Z,10.07
2023-02-24T21:09:12.217Z,12.23
2023-02-24T21:11:39.524Z,12.75
2023-02-24T21:14:07.408Z,10.88
2023-02-24T21:16:37.819Z,12.68
2023-02-24T21:19:04.834Z,11.20
2023-02-24T21:21:31.803Z,10.88
2023-02-24T21:23:58.674Z,12.55
2023-02-24T21:26:27.219Z,11.12
2023-02-24T21:28:57.679Z,11.05
2023-02-24T21:31:25.799Z,11.27
2023-02-24T21:33:53.634Z,11.65
2023-02-24T21:36:23.874Z,11.02
2023-02-24T21:38:51.386Z,11.55
2023-02-24T21:41:21.669Z,11.10
2023-02-24T21:43:52.548Z,11.12
2023-02-24T21:46:19.582Z,11.00
2023-02-24T21:48:46.683Z,9.93
2023-02-24T21:51:14.018Z,10.00
2023-02-24T21:53:44.589Z,10.05
2023-02-24T21:56:18.080Z,11.35
2023-02-24T21:58:47.978Z,12.25
2023-02-24T22:03:44.680Z,11.48
2023-02-24T22:06:14.759Z,11.12
2023-02-24T22:11:17.385Z,10.75
2023-02-24T22:13:45.882Z,10.45
2023-02-24T22:16:16.349Z,10.00
2023-02-24T22:18:43.232Z,10.93
2023-02-24T22:21:12.698Z,11.88
2023-02-24T22:23:40.454Z,11.20
2023-02-24T22:26:09.588Z,12.18
2023-02-24T22:28:39.169Z,11.77
2023-02-24T22:31:07.643Z,10.90
2023-02-24T22:33:37.751Z,11.90
2023-02-24T22:36:06.844Z,11.82
2023-02-24T22:38:35.484Z,12.13
2023-02-24T22:41:10.867Z,12.57
2023-02-24T22:43:37.758Z,12.63
2023-02-24T22:46:12.327Z,12.07
2023-02-24T22:48:39.590Z,11.57
2023-02-24T22:51:08.784Z,12.02
2023-02-24T22:53:38.992Z,14.43
2023-02-24T22:56:07.256Z,13.02
2023-02-24T22:58:34.387Z,12.88
2023-02-24T23:01:01.422Z,12.05
2023-02-24T23:03:31.223Z,12.10
2023-02-24T23:06:03.014Z,12.65
2023-02-24T23:08:33.182Z,12.55
2023-02-24T23:11:30.894Z,12.80
2023-02-24T23:14:01.589Z,11.57
2023-02-24T23:16:31.931Z,11.93
2023-02-24T23:19:01.128Z,11.82
2023-02-24T23:21:39.488Z,11.20
2023-02-24T23:24:08.415Z,13.13
2023-02-24T23:26:38.460Z,13.13
2023-02-24T23:29:06.466Z,11.32
2023-02-24T23:31:33.840Z,12.20
2023-02-24T23:34:01.855Z,9.80
2023-02-24T23:36:28.939Z,10.70
2023-02-24T23:38:57.567Z,10.40
2023-02-24T23:41:24.464Z,11.90
2023-02-24T23:43:51.387Z,10.70
2023-02-24T23:46:18.352Z,9.75
2023-02-24T23:48:46.044Z,10.32
2023-02-24T23:51:14.282Z,10.32
2023-02-24T23:53:43.737Z,12.15
2023-02-24T23:56:21.837Z,14.38
2023-02-24T23:58:54.296Z,9.80
